Time;durP1;ratioP1;P1;durP2;ratioP2;P2;SDS_P1;SDS_P2;PMS_P1;PMS_P2;Temp;Humidity;BMP_temperature;BMP_pressure;BME280_temperature;BME280_humidity;BME280_pressure;Samples;Min_cycle;Max_cycle;Signal;HPM_P1;HPM_P2
2022/09/29 00:00:40;;;;;;;;;;;6.50;99.90;;;;;;6195173;23;19915;-74
2022/09/29 00:03:06;;;;;;;;;;;6.50;99.90;;;;;;6194890;23;19919;-75
2022/09/29 00:05:31;;;;;;;;;;;6.50;99.90;;;;;;6220042;23;19915;-75
2022/09/29 00:07:57;;;;;;;;;;;6.60;99.90;;;;;;6195450;23;20246;-75
2022/09/29 00:10:23;;;;;;;;;;;6.50;99.90;;;;;;6196055;23;19966;-75
2022/09/29 00:12:48;;;;;;;;;;;6.40;99.90;;;;;;6221463;23;19915;-73
2022/09/29 00:15:14;;;;;;;;;;;6.50;99.90;;;;;;6196288;23;19998;-74
2022/09/29 00:17:39;;;;;;;;;;;6.50;99.90;;;;;;6211716;23;19934;-76
2022/09/29 00:20:08;;;;;;;;;;;6.70;99.90;;;;;;6223636;23;19903;-75
2022/09/29 00:22:36;;;;;;;;;;;6.70;99.90;;;;;;6246938;22;19934;-75
2022/09/29 00:25:02;;;;;;;;;;;6.70;99.90;;;;;;6223556;23;19930;-77
2022/09/29 00:27:28;;;;;;;;;;;6.80;99.90;;;;;;6228637;22;19920;-75
2022/09/29 00:29:53;;;;;;;;;;;6.80;99.90;;;;;;6195122;23;19927;-75
2022/09/29 00:32:19;;;;;;;;;;;6.80;99.90;;;;;;6170516;23;19915;-76
2022/09/29 00:34:47;;;;;;;;;;;6.90;99.90;;;;;;6220934;23;19970;-75
2022/09/29 00:37:13;;;;;;;;;;;6.90;99.90;;;;;;6220739;23;20396;-75
2022/09/29 00:39:38;;;;;;;;;;;6.80;99.90;;;;;;6220342;23;19919;-76
2022/09/29 00:42:04;;;;;;;;;;;6.90;99.90;;;;;;6220921;23;19968;-76
2022/09/29 00:44:48;;;;;;;;;;;6.90;99.90;;;;;;6195902;23;19969;-75
2022/09/29 00:47:16;;;;;;;;;;;7.00;99.90;;;;;;6195587;23;19934;-75
2022/09/29 00:49:44;;;;;;;;;;;6.90;99.90;;;;;;6220430;23;19915;-74
2022/09/29 00:52:13;;;;;;;;;;;6.70;99.90;;;;;;6195239;23;19916;-74
2022/09/29 00:54:42;;;;;;;;;;;6.90;99.90;;;;;;6220547;23;19970;-76
2022/09/29 00:57:09;;;;;;;;;;;6.90;99.90;;;;;;6195671;23;19919;-74
2022/09/29 00:59:39;;;;;;;;;;;6.80;99.90;;;;;;6195519;23;19915;-76
2022/09/29 01:02:05;;;;;;;;;;;7.10;99.90;;;;;;6220242;23;19919;-75
2022/09/29 01:04:30;;;;;;;;;;;6.80;99.90;;;;;;6195381;23;19927;-75
2022/09/29 01:06:57;;;;;;;;;;;6.70;99.90;;;;;;6220400;23;20254;-76
2022/09/29 01:09:24;;;;;;;;;;;7.10;99.90;;;;;;6220562;23;20314;-75
2022/09/29 01:11:52;;;;;;;;;;;6.80;99.90;;;;;;6194857;23;19950;-74
2022/09/29 01:14:19;;;;;;;;;;;6.60;99.90;;;;;;6220696;23;20339;-74
2022/09/29 01:16:45;;;;;;;;;;;6.50;99.90;;;;;;6195342;23;19926;-75
2022/09/29 01:19:30;;;;;;;;;;;6.70;99.90;;;;;;6220954;23;19994;-76
2022/09/29 01:21:56;;;;;;;;;;;6.50;99.90;;;;;;6217047;23;19994;-75
2022/09/29 01:24:27;;;;;;;;;;;6.90;99.90;;;;;;6219698;23;20043;-75
2022/09/29 01:27:12;;;;;;;;;;;6.60;99.90;;;;;;6219847;23;19930;-75
2022/09/29 01:29:56;;;;;;;;;;;6.50;99.90;;;;;;6194720;23;19926;-75
2022/09/29 01:32:31;;;;;;;;;;;6.50;99.90;;;;;;6194864;23;19919;-75
2022/09/29 01:34:57;;;;;;;;;;;6.50;99.90;;;;;;6195396;23;19958;-75
2022/09/29 01:37:26;;;;;;;;;;;6.60;99.90;;;;;;6194965;23;19970;-76
2022/09/29 01:40:13;;;;;;;;;;;6.50;99.90;;;;;;6195174;23;19920;-74
2022/09/29 01:42:42;;;;;;;;;;;6.50;99.90;;;;;;6195199;23;19920;-76
2022/09/29 01:45:16;;;;;;;;;;;6.40;99.90;;;;;;6220469;23;19993;-74
2022/09/29 01:47:44;;;;;;;;;;;6.40;99.90;;;;;;6220092;23;19968;-76
2022/09/29 01:50:22;;;;;;;;;;;6.40;99.90;;;;;;6213958;23;19919;-75
2022/09/29 01:52:55;;;;;;;;;;;6.30;99.90;;;;;;6189767;23;19916;-76
2022/09/29 01:55:24;;;;;;;;;;;6.30;99.90;;;;;;6190139;23;19916;-74
2022/09/29 01:57:51;;;;;;;;;;;6.80;99.90;;;;;;6189775;23;20319;-74
2022/09/29 02:00:18;;;;;;;;;;;6.20;99.90;;;;;;6190022;23;19923;-75
2022/09/29 02:02:55;;;;;;;;;;;6.30;99.90;;;;;;6164849;23;19974;-73
2022/09/29 02:05:24;;;;;;;;;;;6.40;99.90;;;;;;6165067;23;19966;-74
2022/09/29 02:07:50;;;;;;;;;;;6.20;99.90;;;;;;6164777;23;20001;-76
2022/09/29 02:10:22;;;;;;;;;;;6.30;99.90;;;;;;6165129;23;20242;-75
2022/09/29 02:12:49;;;;;;;;;;;6.70;99.90;;;;;;6165512;23;20323;-74
2022/09/29 02:15:18;;;;;;;;;;;6.30;99.90;;;;;;6165215;23;19916;-75
2022/09/29 02:17:47;;;;;;;;;;;6.60;99.90;;;;;;6165143;23;20011;-75
2022/09/29 02:20:13;;;;;;;;;;;6.20;99.90;;;;;;6164584;23;19923;-76
2022/09/29 02:22:39;;;;;;;;;;;6.40;99.90;;;;;;6164539;23;20247;-75
2022/09/29 02:25:07;;;;;;;;;;;6.20;99.90;;;;;;6189206;23;19915;-75
2022/09/29 02:27:33;;;;;;;;;;;6.10;99.90;;;;;;6189885;23;19916;-76
2022/09/29 02:29:59;;;;;;;;;;;6.20;99.90;;;;;;6165026;23;20224;-75
2022/09/29 02:32:25;;;;;;;;;;;6.10;99.90;;;;;;6190170;23;19970;-76
2022/09/29 02:34:51;;;;;;;;;;;6.10;99.90;;;;;;6189974;23;19927;-75
2022/09/29 02:37:20;;;;;;;;;;;6.30;99.90;;;;;;6164551;23;19923;-76
2022/09/29 02:39:52;;;;;;;;;;;6.10;99.90;;;;;;6164907;23;19943;-75
2022/09/29 02:42:27;;;;;;;;;;;6.10;99.90;;;;;;6164762;23;19927;-74
2022/09/29 02:45:12;;;;;;;;;;;6.10;99.90;;;;;;6188855;23;19920;-74
2022/09/29 02:47:50;;;;;;;;;;;5.90;99.90;;;;;;6189153;23;19939;-75
2022/09/29 02:50:15;;;;;;;;;;;6.10;99.90;;;;;;6172029;23;19969;-74
2022/09/29 02:52:50;;;;;;;;;;;6.20;99.90;;;;;;6244928;23;19947;-76
2022/09/29 02:55:19;;;;;;;;;;;6.20;99.90;;;;;;6220181;23;19931;-74
2022/09/29 02:57:50;;;;;;;;;;;6.20;99.90;;;;;;6254595;23;19947;-75
2022/09/29 03:00:16;;;;;;;;;;;6.20;99.90;;;;;;6248199;22;19903;-75
2022/09/29 03:02:42;;;;;;;;;;;6.10;99.90;;;;;;6273933;22;19927;-75
2022/09/29 03:05:10;;;;;;;;;;;6.50;99.90;;;;;;6273696;22;19907;-76
2022/09/29 03:07:37;;;;;;;;;;;6.20;99.90;;;;;;6258824;22;20220;-75
2022/09/29 03:10:06;;;;;;;;;;;6.00;99.90;;;;;;6220511;23;19922;-76
2022/09/29 03:12:32;;;;;;;;;;;6.10;99.90;;;;;;6219901;23;19937;-75
2022/09/29 03:14:57;;;;;;;;;;;6.00;99.90;;;;;;6219884;23;20245;-74
2022/09/29 03:17:23;;;;;;;;;;;6.20;99.90;;;;;;6219424;23;19920;-74
2022/09/29 03:19:48;;;;;;;;;;;6.10;99.90;;;;;;6244716;22;20242;-75
2022/09/29 03:22:14;;;;;;;;;;;5.70;99.90;;;;;;6219599;23;20042;-75
2022/09/29 03:24:40;;;;;;;;;;;5.80;99.90;;;;;;6219417;23;19946;-75
2022/09/29 03:27:06;;;;;;;;;;;5.90;99.90;;;;;;6219431;23;19915;-76
2022/09/29 03:29:32;;;;;;;;;;;6.00;99.90;;;;;;6219705;23;19943;-75
2022/09/29 03:31:59;;;;;;;;;;;5.70;99.90;;;;;;6219413;23;20238;-77
2022/09/29 03:34:24;;;;;;;;;;;6.00;99.90;;;;;;6244489;23;19943;-73
2022/09/29 03:36:50;;;;;;;;;;;5.70;99.90;;;;;;6219233;23;19915;-75
2022/09/29 03:39:15;;;;;;;;;;;5.70;99.90;;;;;;6219555;22;19915;-74
2022/09/29 03:41:41;;;;;;;;;;;6.30;99.90;;;;;;6219610;23;20234;-74
2022/09/29 03:44:09;;;;;;;;;;;5.90;99.90;;;;;;6244467;23;20384;-76
2022/09/29 03:46:35;;;;;;;;;;;5.50;99.90;;;;;;6244980;23;19919;-75
2022/09/29 03:49:01;;;;;;;;;;;5.60;99.90;;;;;;6219334;22;19961;-76
2022/09/29 03:51:26;;;;;;;;;;;5.70;99.90;;;;;;6246357;23;19926;-75
2022/09/29 03:53:53;;;;;;;;;;;5.50;99.90;;;;;;6221430;23;19915;-74
2022/09/29 03:56:18;;;;;;;;;;;5.90;99.90;;;;;;6221024;23;19915;-75
2022/09/29 03:58:44;;;;;;;;;;;5.60;99.90;;;;;;6246517;23;19941;-76
2022/09/29 04:01:09;;;;;;;;;;;5.60;99.90;;;;;;6220503;23;19915;-76
2022/09/29 04:03:35;;;;;;;;;;;5.80;99.90;;;;;;6220581;23;19926;-75
2022/09/29 04:06:00;;;;;;;;;;;5.40;99.90;;;;;;6245662;23;19923;-75
2022/09/29 04:08:26;;;;;;;;;;;5.30;99.90;;;;;;6219730;23;19916;-75
2022/09/29 04:10:52;;;;;;;;;;;5.60;99.90;;;;;;6245802;22;19950;-74
2022/09/29 04:13:17;;;;;;;;;;;5.70;99.90;;;;;;6220783;23;19994;-75
2022/09/29 04:15:43;;;;;;;;;;;5.40;99.90;;;;;;6245345;23;19920;-76
2022/09/29 04:18:09;;;;;;;;;;;5.50;99.90;;;;;;6221194;23;20246;-75
2022/09/29 04:20:36;;;;;;;;;;;5.40;99.90;;;;;;6220725;23;19923;-74
2022/09/29 04:23:01;;;;;;;;;;;5.40;99.90;;;;;;6220615;23;19919;-75
2022/09/29 04:25:27;;;;;;;;;;;5.50;99.90;;;;;;6220576;23;19922;-75
2022/09/29 04:27:53;;;;;;;;;;;5.50;99.90;;;;;;6221024;23;19990;-74
2022/09/29 04:30:18;;;;;;;;;;;5.70;99.90;;;;;;6246421;22;19915;-76
2022/09/29 04:32:44;;;;;;;;;;;5.60;99.90;;;;;;6195609;23;19951;-75
2022/09/29 04:35:10;;;;;;;;;;;5.80;99.90;;;;;;6246134;23;19920;-76
2022/09/29 04:37:35;;;;;;;;;;;5.40;99.90;;;;;;6220930;23;19920;-75
2022/09/29 04:40:02;;;;;;;;;;;5.50;99.90;;;;;;6220527;23;19916;-76
2022/09/29 04:42:27;;;;;;;;;;;5.60;99.90;;;;;;6246144;23;19920;-76
2022/09/29 04:44:53;;;;;;;;;;;5.40;99.90;;;;;;6245746;23;19924;-76
2022/09/29 04:47:19;;;;;;;;;;;5.30;99.90;;;;;;6245779;23;19961;-74
2022/09/29 04:49:44;;;;;;;;;;;5.30;99.90;;;;;;6245764;22;19942;-75
2022/09/29 04:52:11;;;;;;;;;;;5.40;99.90;;;;;;6220313;23;19969;-75
2022/09/29 04:54:36;;;;;;;;;;;5.60;99.90;;;;;;6220376;23;19922;-74
2022/09/29 04:57:02;;;;;;;;;;;5.30;99.90;;;;;;6245391;23;19919;-75
2022/09/29 04:59:28;;;;;;;;;;;5.60;99.90;;;;;;6220024;23;20253;-74
2022/09/29 05:01:53;;;;;;;;;;;5.40;99.90;;;;;;6220177;23;19947;-75
2022/09/29 05:04:19;;;;;;;;;;;5.60;99.90;;;;;;6245624;23;20345;-74
2022/09/29 05:06:45;;;;;;;;;;;5.40;99.90;;;;;;6220632;23;19923;-75
2022/09/29 05:09:11;;;;;;;;;;;5.40;99.90;;;;;;6245669;22;19920;-75
2022/09/29 05:11:36;;;;;;;;;;;5.40;99.90;;;;;;6245962;23;19920;-75
2022/09/29 05:14:02;;;;;;;;;;;5.40;99.90;;;;;;6246041;23;19966;-75
2022/09/29 05:16:28;;;;;;;;;;;5.50;99.90;;;;;;6220158;23;19920;-75
2022/09/29 05:18:53;;;;;;;;;;;5.50;99.90;;;;;;6219824;23;19920;-74
2022/09/29 05:21:22;;;;;;;;;;;5.60;99.90;;;;;;6244744;22;19952;-76
2022/09/29 05:23:47;;;;;;;;;;;5.40;99.90;;;;;;6244884;23;19927;-75
2022/09/29 05:26:13;;;;;;;;;;;5.40;99.90;;;;;;6218509;23;19920;-75
2022/09/29 05:28:42;;;;;;;;;;;5.20;99.90;;;;;;6244595;23;19943;-74
2022/09/29 05:31:10;;;;;;;;;;;5.40;99.90;;;;;;6244140;22;19923;-76
2022/09/29 05:33:36;;;;;;;;;;;5.40;99.90;;;;;;6219719;23;19915;-74
2022/09/29 05:36:06;;;;;;;;;;;5.40;99.90;;;;;;6245598;23;19995;-76
2022/09/29 05:38:34;;;;;;;;;;;5.40;99.90;;;;;;6245552;23;19920;-73
2022/09/29 05:41:03;;;;;;;;;;;5.70;99.90;;;;;;6220495;23;19969;-75
2022/09/29 05:43:28;;;;;;;;;;;5.40;99.90;;;;;;6245213;23;19919;-76
2022/09/29 05:45:58;;;;;;;;;;;5.60;99.90;;;;;;6220188;23;19926;-74
2022/09/29 05:48:29;;;;;;;;;;;5.60;99.90;;;;;;6220298;23;20388;-74
2022/09/29 05:50:58;;;;;;;;;;;5.50;99.90;;;;;;6245189;22;19973;-75
2022/09/29 05:53:24;;;;;;;;;;;5.50;99.90;;;;;;6245221;23;19930;-76
2022/09/29 05:55:50;;;;;;;;;;;5.50;99.90;;;;;;6219712;23;20301;-76
2022/09/29 05:58:18;;;;;;;;;;;5.60;99.90;;;;;;6245233;23;19990;-75
2022/09/29 06:00:44;;;;;;;;;;;5.90;99.90;;;;;;6219843;23;19994;-75
2022/09/29 06:03:10;;;;;;;;;;;5.90;99.90;;;;;;6219611;23;19961;-75
2022/09/29 06:05:38;;;;;;;;;;;5.60;99.90;;;;;;6195051;23;19920;-75
2022/09/29 06:08:04;;;;;;;;;;;5.60;99.90;;;;;;6219868;23;20246;-76
2022/09/29 06:10:30;;;;;;;;;;;5.60;99.90;;;;;;6219635;23;19986;-74
2022/09/29 06:12:56;;;;;;;;;;;6.00;99.90;;;;;;6219806;23;19915;-74
2022/09/29 06:15:22;;;;;;;;;;;5.70;99.90;;;;;;6244684;23;19916;-74
2022/09/29 06:17:53;;;;;;;;;;;5.70;99.90;;;;;;6244690;23;19922;-74
2022/09/29 06:20:19;;;;;;;;;;;5.70;99.90;;;;;;6219395;23;19942;-74
2022/09/29 06:22:44;;;;;;;;;;;5.70;99.90;;;;;;6244927;23;19916;-75
2022/09/29 06:25:10;;;;;;;;;;;6.00;99.90;;;;;;6219600;23;20246;-75
2022/09/29 06:27:35;;;;;;;;;;;5.70;99.90;;;;;;6219536;23;19916;-76
2022/09/29 06:30:01;;;;;;;;;;;6.10;99.90;;;;;;6245049;22;20281;-76
2022/09/29 06:32:27;;;;;;;;;;;6.10;99.90;;;;;;6245196;23;19942;-76
2022/09/29 06:37:38;;;;;;;;;;;6.10;99.90;;;;;;6245295;23;19943;-76
2022/09/29 06:40:07;;;;;;;;;;;5.90;99.90;;;;;;6244927;22;19926;-73
2022/09/29 06:42:33;;;;;;;;;;;6.10;99.90;;;;;;6244507;23;19969;-73
2022/09/29 06:44:59;;;;;;;;;;;6.10;99.90;;;;;;6219160;23;20327;-75
2022/09/29 06:47:25;;;;;;;;;;;6.40;99.90;;;;;;6218801;23;19920;-74
2022/09/29 06:49:50;;;;;;;;;;;6.30;99.90;;;;;;6218271;23;19954;-74
2022/09/29 06:52:16;;;;;;;;;;;6.50;99.90;;;;;;6193710;23;19920;-75
2022/09/29 06:54:41;;;;;;;;;;;6.50;99.90;;;;;;6194426;23;19920;-73
2022/09/29 06:57:07;;;;;;;;;;;6.40;99.90;;;;;;6194186;23;19920;-74
2022/09/29 06:59:33;;;;;;;;;;;6.90;99.90;;;;;;6193951;22;19916;-74
2022/09/29 07:01:58;;;;;;;;;;;6.60;99.90;;;;;;6194418;23;19915;-75
2022/09/29 07:04:24;;;;;;;;;;;6.60;99.90;;;;;;6194218;23;19947;-74
2022/09/29 07:19:28;;;;;;;;;;;7.20;99.90;;;;;;6274433;22;20249;-74
2022/09/29 07:21:53;;;;;;;;;;;7.40;99.90;;;;;;6280773;22;19919;-78
2022/09/29 07:24:19;;;;;;;;;;;7.50;99.90;;;;;;6256293;22;19942;-79
2022/09/29 07:26:45;;;;;;;;;;;7.70;99.90;;;;;;6256735;22;19915;-77
2022/09/29 07:29:13;;;;;;;;;;;7.80;99.90;;;;;;6256608;22;19915;-80
2022/09/29 07:31:46;;;;;;;;;;;8.00;99.90;;;;;;6256563;22;19960;-77
2022/09/29 07:34:12;;;;;;;;;;;8.10;99.90;;;;;;6256977;22;19971;-75
2022/09/29 07:36:38;;;;;;;;;;;8.40;99.90;;;;;;6255821;22;19950;-73
2022/09/29 07:39:04;;;;;;;;;;;8.50;99.90;;;;;;6256845;22;19942;-76
2022/09/29 07:41:29;;;;;;;;;;;8.40;99.90;;;;;;6281759;22;19915;-75
2022/09/29 07:43:55;;;;;;;;;;;8.50;99.90;;;;;;6256468;22;20326;-75
2022/09/29 07:46:20;;;;;;;;;;;8.60;99.90;;;;;;6256450;22;19989;-73
2022/09/29 07:48:46;;;;;;;;;;;8.80;99.90;;;;;;6231581;22;19919;-76
2022/09/29 07:51:13;;;;;;;;;;;8.90;99.90;;;;;;6255380;22;19914;-73
2022/09/29 07:53:39;;;;;;;;;;;9.00;99.90;;;;;;6280990;22;19922;-77
2022/09/29 07:56:09;;;;;;;;;;;9.30;99.90;;;;;;6255595;22;20318;-77
2022/09/29 07:58:36;;;;;;;;;;;9.30;99.90;;;;;;6256152;22;20241;-79
2022/09/29 08:01:09;;;;;;;;;;;9.50;99.90;;;;;;6255030;22;19918;-74
2022/09/29 08:03:41;;;;;;;;;;;9.60;99.90;;;;;;6256342;22;19998;-78
2022/09/29 08:06:10;;;;;;;;;;;9.80;99.90;;;;;;6255672;22;19926;-77
2022/09/29 08:08:39;;;;;;;;;;;10.10;99.90;;;;;;6264507;22;19961;-75
2022/09/29 08:11:06;;;;;;;;;;;10.40;99.90;;;;;;6300487;22;19915;-76
2022/09/29 08:13:33;;;;;;;;;;;10.60;99.90;;;;;;6284073;22;19937;-75
2022/09/29 08:16:03;;;;;;;;;;;10.80;99.90;;;;;;6283696;22;19907;-75
2022/09/29 08:18:29;;;;;;;;;;;11.20;99.90;;;;;;6283883;22;19911;-73
2022/09/29 08:20:57;;;;;;;;;;;11.40;99.90;;;;;;6250638;22;19919;-77
2022/09/29 08:23:23;;;;;;;;;;;11.60;99.90;;;;;;6254664;22;19915;-76
2022/09/29 08:25:58;;;;;;;;;;;11.70;99.90;;;;;;6279163;22;19925;-76
2022/09/29 08:31:32;;;;;;;;;;;11.90;99.90;;;;;;6274608;22;19968;-74
2022/09/29 08:34:00;;;;;;;;;;;12.00;99.90;;;;;;6280691;22;19919;-75
2022/09/29 08:46:01;;;;;;;;;;;12.50;99.90;;;;;;6308030;22;19956;-75
2022/09/29 08:52:32;;;;;;;;;;;12.80;99.90;;;;;;6190214;22;19978;-74
2022/09/29 08:55:28;;;;;;;;;;;12.80;99.90;;;;;;6230434;22;19923;-76
2022/09/29 08:58:02;;;;;;;;;;;13.00;99.90;;;;;;6225502;22;19915;-82
2022/09/29 09:00:40;;;;;;;;;;;13.20;99.90;;;;;;6224014;22;20035;-78
2022/09/29 10:34:40;;;;;;;;;;;;;;;;;;;;;
2022/09/29 11:02:49;;;;;;;;;;;16.60;99.90;;;;;;5862831;24;19918;-78
2022/09/29 11:12:54;;;;;;;;;;;;;;;;;;;;;
2022/09/29 11:34:11;;;;;;;;;;;15.00;99.90;;;;;;6038474;23;19993;-77
2022/09/29 11:51:53;;;;;;;;;;;;;;;;;;;;;
2022/09/29 12:20:30;;;;;;;;;;;;;;;;;;;;;
2022/09/29 12:26:58;;;;;;;;;;;;;;;;;;;;;
2022/09/29 12:29:58;;;;;;;;;;;16.50;99.90;;;;;;5899069;24;19931;-77
2022/09/29 19:09:37;;;;;;;;;;;;;;;;;;;;;
2022/09/29 19:13:06;;;;;;;;;;;11.50;99.90;;;;;;6307452;22;19914;-76
2022/09/29 19:16:33;;;;;;;;;;;;;;;;;;;;;
2022/09/29 19:22:48;;;;;;;;;;;11.50;99.90;;;;;;6135162;23;19917;-76
2022/09/29 19:25:27;;;;;;;;;;;11.40;99.90;;;;;;6130027;23;19912;-79
2022/09/29 19:28:05;;;;;;;;;;;11.40;99.90;;;;;;6256982;22;19915;-78
2022/09/29 19:30:35;;;;;;;;;;;11.40;99.90;;;;;;6281007;22;19918;-76
2022/09/29 19:33:22;;;;;;;;;;;11.40;99.90;;;;;;6257338;22;19910;-74
2022/09/29 19:35:53;;;;;;;;;;;11.40;99.90;;;;;;6282588;22;19917;-73
2022/09/29 19:38:19;;;;;;;;;;;11.40;99.90;;;;;;6279842;22;19911;-74
2022/09/29 19:40:45;;;;;;;;;;;11.40;99.90;;;;;;6280302;22;19989;-72
2022/09/29 19:43:12;;;;;;;;;;;11.40;99.90;;;;;;6255056;22;19989;-74
2022/09/29 19:45:38;;;;;;;;;;;11.30;99.90;;;;;;6280347;22;19942;-72
2022/09/29 19:48:07;;;;;;;;;;;11.30;99.90;;;;;;6279699;22;19915;-72
2022/09/29 19:57:09;;;;;;;;;;;11.30;99.90;;;;;;6123260;23;19917;-76
2022/09/29 19:59:39;;;;;;;;;;;11.30;99.90;;;;;;6122802;23;20302;-75
2022/09/29 20:02:07;;;;;;;;;;;11.30;99.90;;;;;;6156625;23;19912;-73
2022/09/29 20:04:33;;;;;;;;;;;11.30;99.90;;;;;;6133341;23;19942;-72
2022/09/29 20:06:59;;;;;;;;;;;11.20;99.90;;;;;;6190942;22;19915;-73
2022/09/29 20:09:25;;;;;;;;;;;11.20;99.90;;;;;;6254014;22;20236;-71
2022/09/29 20:11:54;;;;;;;;;;;11.20;99.90;;;;;;6278729;22;19915;-78
2022/09/29 20:17:50;;;;;;;;;;;11.00;99.90;;;;;;6306727;22;19925;-78
2022/09/29 21:54:18;;;;;;;;;;;9.30;99.90;;;;;;6298425;22;19919;-75
2022/09/29 21:56:44;;;;;;;;;;;9.30;99.90;;;;;;6254637;22;19965;-75
2022/09/29 21:59:11;;;;;;;;;;;9.20;99.90;;;;;;6280327;22;20053;-73
2022/09/29 22:01:37;;;;;;;;;;;9.20;99.90;;;;;;6307381;22;20338;-74
2022/09/29 22:04:03;;;;;;;;;;;9.20;99.90;;;;;;6307752;22;19974;-73
2022/09/29 22:06:29;;;;;;;;;;;9.20;99.90;;;;;;6254721;22;19914;-74
2022/09/29 22:08:56;;;;;;;;;;;9.10;99.90;;;;;;6280306;22;19950;-74
2022/09/29 22:11:22;;;;;;;;;;;9.00;99.90;;;;;;6279822;22;19997;-72
2022/09/29 22:13:49;;;;;;;;;;;9.20;99.90;;;;;;6280278;22;19921;-74
2022/09/29 22:16:20;;;;;;;;;;;8.90;99.90;;;;;;6280253;22;19922;-73
2022/09/29 22:18:46;;;;;;;;;;;8.90;99.90;;;;;;6280264;22;19961;-72
2022/09/29 22:21:14;;;;;;;;;;;8.90;99.90;;;;;;6279691;22;20407;-73
2022/09/29 22:23:40;;;;;;;;;;;8.90;99.90;;;;;;6279923;22;20040;-72
2022/09/29 22:26:09;;;;;;;;;;;9.20;99.90;;;;;;6279572;22;20317;-75
2022/09/29 22:28:34;;;;;;;;;;;8.80;99.90;;;;;;6279407;22;20274;-74
2022/09/29 22:31:04;;;;;;;;;;;8.70;99.90;;;;;;6279758;22;19919;-73
2022/09/29 22:33:29;;;;;;;;;;;8.70;99.90;;;;;;6280532;22;19915;-73
2022/09/29 22:35:56;;;;;;;;;;;8.70;99.90;;;;;;6280084;22;20331;-72
2022/09/29 22:38:22;;;;;;;;;;;8.70;99.90;;;;;;6280191;22;19914;-72
2022/09/29 22:40:48;;;;;;;;;;;8.60;99.90;;;;;;6254550;22;20001;-74
2022/09/29 22:43:13;;;;;;;;;;;8.60;99.90;;;;;;6279695;22;19922;-72
2022/09/29 22:45:39;;;;;;;;;;;8.60;99.90;;;;;;6254473;22;19915;-73
2022/09/29 22:48:05;;;;;;;;;;;8.50;99.90;;;;;;6280180;22;19919;-72
2022/09/29 22:50:31;;;;;;;;;;;8.50;99.90;;;;;;6279805;22;19919;-74
2022/09/29 22:52:57;;;;;;;;;;;8.50;99.90;;;;;;6254129;22;20046;-74
2022/09/29 22:55:23;;;;;;;;;;;8.40;99.90;;;;;;6256275;22;19915;-72
2022/09/29 22:57:48;;;;;;;;;;;8.40;99.90;;;;;;6256865;22;19938;-74
2022/09/29 23:00:14;;;;;;;;;;;8.40;99.90;;;;;;6281717;22;19915;-73
2022/09/29 23:02:40;;;;;;;;;;;8.40;99.90;;;;;;6256759;22;19959;-72
2022/09/29 23:05:05;;;;;;;;;;;8.40;99.90;;;;;;6256449;22;19926;-73
2022/09/29 23:07:31;;;;;;;;;;;8.40;99.90;;;;;;6256660;22;19946;-75
2022/09/29 23:09:57;;;;;;;;;;;8.30;99.90;;;;;;6280461;22;19914;-73
2022/09/29 23:12:27;;;;;;;;;;;8.40;99.90;;;;;;6281542;22;19919;-73
2022/09/29 23:14:53;;;;;;;;;;;8.40;99.90;;;;;;6282228;22;19925;-72
2022/09/29 23:17:19;;;;;;;;;;;8.60;99.90;;;;;;6282131;22;19957;-72
2022/09/29 23:19:44;;;;;;;;;;;8.40;99.90;;;;;;6281634;22;20341;-73
2022/09/29 23:22:10;;;;;;;;;;;8.40;99.90;;;;;;6282120;22;19918;-74
2022/09/29 23:24:35;;;;;;;;;;;8.50;99.90;;;;;;6282213;22;19915;-74
2022/09/29 23:27:02;;;;;;;;;;;8.40;99.90;;;;;;6256364;22;19923;-73
2022/09/29 23:29:27;;;;;;;;;;;8.50;99.90;;;;;;6256287;22;19915;-72
2022/09/29 23:31:53;;;;;;;;;;;8.40;99.90;;;;;;6282268;22;19926;-73
2022/09/29 23:34:22;;;;;;;;;;;8.40;99.90;;;;;;6256762;22;20017;-75
2022/09/29 23:36:48;;;;;;;;;;;8.40;99.90;;;;;;6282274;22;19914;-73
2022/09/29 23:39:14;;;;;;;;;;;8.40;99.90;;;;;;6281947;22;19919;-74
2022/09/29 23:41:41;;;;;;;;;;;8.40;99.90;;;;;;6282172;22;19976;-73
2022/09/29 23:44:07;;;;;;;;;;;8.30;99.90;;;;;;6253956;22;19961;-74
2022/09/29 23:46:33;;;;;;;;;;;8.30;99.90;;;;;;6280609;22;19919;-74
2022/09/29 23:49:00;;;;;;;;;;;8.30;99.90;;;;;;6255660;22;20340;-73
2022/09/29 23:51:26;;;;;;;;;;;8.30;99.90;;;;;;6255328;22;19915;-73
2022/09/29 23:53:52;;;;;;;;;;;8.20;99.90;;;;;;6276274;22;19916;-75
2022/09/29 23:56:20;;;;;;;;;;;8.20;99.90;;;;;;6276842;22;19937;-72
2022/09/29 23:58:46;;;;;;;;;;;8.20;99.90;;;;;;6250701;22;19926;-73
